Aérodrome :
LOGIN :

S'inscrire | Disclaimer

   EN    FR    IT 

 










Légende :    VFR   VFR Marginal   IFR   IFR Intensif   IFR Très Intensif
Visi : 
Plafond : 
>= 8 km
>= 3000ft
5 à 8 km
1000 à 3000 ft
1500m à 5 km
500 à 1000 ft
800 à 1500m
200 à 500 ft
< 800m
< 200 ft
Symboles :   Orages  Brouillard  Fortes neiges  Fortes précipitations  Vent > 20 kt
SIGMETs :   Divers  Orages  Givrage  Turbulence  Onde Orograph.  Cendres Volcan.






- Altitude de l'aérodrome : 140 ft
- Code IATA : NYO


ESKN - Skavsta

DERNIER METAR :
  • 150020Z 00000KT 0500 R08/1100N R26/P2000N FZFG NSC M01/M01 Q1020 R26/290195

METARs EXPIRÉS :
  • 142350Z 07002KT 2800 BCFG FEW047 01/01 Q1020 R26/290195
  • 142320Z 10003KT 2900 R08/P2000N R26/P2000N BCFG BKN046 01/01 Q1019 R26/290195
  • 142250Z 11004KT 1200 R08/1800N R26/0800N BCFG BKN046 01/01 Q1019 R26/290195
  • 142220Z 05002KT 1400 R08/P2000N R26/1600D BCFG FEW046 02/02 Q1018 R26/290195
  • 142150Z 14002KT 5000 R08/P2000D R26/P2000N BCFG SCT008 BKN044 02/02 Q1018 R26/290195

TAF COR TAF ESKN
Valide du 15 à 00h jusqu'au 16 à 00h UTC


150006Z 1500/1524 VRB02KT 3000 BR SCT050
PROB40 1500/1508 0500 FG VV002
PROB40 1508/1512 5000 BKN008
BECMG 1512/1514 07010KT 9999 NSW



MET'MAP, la Météo Aéronautique d'un coup d'oeil ! - Copyright ORBIFLY Décembre 2007 - Disclaimer

ORBIFLY MET'MAP TEAM :

Programmation & Développement : Alexandra Zaïnal
Conception & Développement : Baudouin d'Aumeries
Co-Programmation & Développement : Marc-Olivier Méhu
Soutien technique & logistique : Manuel Goepfert

Contact : metmap@orbifly.com




SOURCES & CREDITS :

   NOAA